createdAt,value
2022-12-18T08:18:01.898Z,23.3
2022-12-18T08:22:43.309Z,21.3
2022-12-18T08:27:25.513Z,19.4
2022-12-18T08:32:07.746Z,20.2
2022-12-18T08:36:50.119Z,22.6
2022-12-18T08:41:32.404Z,22.1
2022-12-18T08:46:14.635Z,20.1
2022-12-18T08:50:56.967Z,20
2022-12-18T08:55:39.191Z,20
2022-12-18T09:00:21.524Z,19.29
2022-12-18T09:05:03.842Z,16.9
2022-12-18T09:09:46.068Z,15.7
2022-12-18T09:14:28.393Z,16.2
2022-12-18T09:19:10.632Z,16.6
2022-12-18T09:23:53.043Z,15.9
2022-12-18T09:28:35.179Z,19.79
2022-12-18T09:33:17.511Z,16.4
2022-12-18T09:37:59.854Z,19.1
2022-12-18T09:42:42.056Z,16.5
2022-12-18T09:47:24.388Z,17.1
2022-12-18T09:52:06.654Z,17.2
2022-12-18T10:01:31.171Z,17
2022-12-18T10:06:13.499Z,18
2022-12-18T10:10:55.828Z,18.29
2022-12-18T10:15:38.055Z,16.29
2022-12-18T10:20:20.395Z,14.4
2022-12-18T10:25:02.613Z,16.6
2022-12-18T10:29:44.948Z,14.3
2022-12-18T10:34:27.164Z,16.6
2022-12-18T10:39:09.586Z,16.79
2022-12-18T10:43:51.718Z,18.29
2022-12-18T10:48:34.085Z,16.9
2022-12-18T10:53:16.373Z,12.5
2022-12-18T10:57:58.599Z,15
2022-12-18T11:02:40.929Z,16.9
2022-12-18T11:07:23.155Z,15.7
2022-12-18T11:12:05.519Z,18
2022-12-18T11:16:47.708Z,12.8
2022-12-18T11:21:30.054Z,16.6
2022-12-18T11:26:12.427Z,14.5
2022-12-18T11:30:54.595Z,14
2022-12-18T11:35:36.923Z,16.6
2022-12-18T11:40:19.147Z,13.4
2022-12-18T11:45:01.477Z,14.7
2022-12-18T11:49:43.768Z,15.8
2022-12-18T11:54:26.029Z,16.6
2022-12-18T11:59:08.251Z,13.7
2022-12-18T12:03:50.585Z,16.4
2022-12-18T12:08:32.923Z,15.3
2022-12-18T12:13:15.188Z,13
2022-12-18T12:17:57.466Z,14.3
2022-12-18T12:22:39.701Z,11.9
2022-12-18T12:27:22.019Z,14.4
2022-12-18T12:32:04.258Z,14.8
2022-12-18T12:36:46.571Z,15.9
2022-12-18T12:41:28.800Z,16.2
2022-12-18T12:46:11.128Z,15.8
2022-12-18T12:50:53.513Z,15.9
2022-12-18T12:55:35.867Z,16.1
2022-12-18T13:00:18.112Z,16
2022-12-18T13:05:00.274Z,13.9
2022-12-18T13:09:42.506Z,13.9
2022-12-18T13:14:24.823Z,15.4
2022-12-18T13:19:07.102Z,16.5
2022-12-18T13:23:49.556Z,13.3
2022-12-18T13:28:31.839Z,14.9
2022-12-18T13:33:13.937Z,4.69
2022-12-18T13:37:56.348Z,14.5
2022-12-18T13:42:38.532Z,14.4
2022-12-18T13:47:20.818Z,12.1
2022-12-18T13:52:03.051Z,12.7
2022-12-18T13:56:45.368Z,13.7
2022-12-18T14:01:27.758Z,14.8
2022-12-18T14:06:09.924Z,14.4
2022-12-18T14:10:52.391Z,15.2
2022-12-18T14:15:34.473Z,15.9
2022-12-18T14:20:16.804Z,15.8
2022-12-18T14:24:59.035Z,17.5
2022-12-18T14:29:41.360Z,17
2022-12-18T14:34:23.591Z,20.29
2022-12-18T14:39:05.915Z,18.9
2022-12-18T14:43:48.241Z,19.29
2022-12-18T14:48:29.564Z,19.6
2022-12-18T14:57:53.124Z,20.4
2022-12-18T15:02:35.360Z,19.5
2022-12-18T15:12:00.007Z,20.9
2022-12-18T15:16:42.230Z,24.5
2022-12-18T15:21:24.557Z,22.3
2022-12-18T15:26:06.788Z,23.6
2022-12-18T15:30:49.113Z,19
2022-12-18T15:35:31.338Z,21.2
2022-12-18T15:40:13.666Z,21.4
2022-12-18T15:44:55.990Z,22.8
2022-12-18T15:49:38.221Z,20.6
2022-12-18T15:54:19.549Z,21.6
2022-12-18T15:59:01.871Z,22.9
2022-12-18T16:03:44.095Z,23.6
2022-12-18T16:08:26.418Z,24.9
2022-12-18T16:13:08.655Z,24.3
2022-12-18T16:17:50.983Z,24.2
2022-12-18T16:22:33.247Z,25.4
2022-12-18T16:27:15.537Z,24.9
2022-12-18T16:31:57.864Z,23.8
2022-12-18T16:36:39.185Z,24.4
2022-12-18T16:41:20.417Z,22.5
2022-12-18T16:46:02.745Z,22.2
2022-12-18T16:50:44.973Z,20.8
2022-12-18T16:55:27.312Z,19.2
2022-12-18T17:00:08.623Z,23.7
2022-12-18T17:04:49.951Z,22.3
2022-12-18T17:09:32.177Z,24.5
2022-12-18T17:14:14.502Z,24
2022-12-18T17:18:56.734Z,23.9
2022-12-18T17:23:39.056Z,24.9
2022-12-18T17:28:21.386Z,25.3
2022-12-18T17:33:03.608Z,26.2
2022-12-18T17:37:45.940Z,23.5
2022-12-18T17:42:28.168Z,26.6
2022-12-18T17:47:10.497Z,24
2022-12-18T17:51:52.849Z,22
2022-12-18T17:56:35.064Z,24.3
2022-12-18T18:01:17.380Z,22.1
2022-12-18T18:05:59.613Z,21.7
2022-12-18T18:15:23.327Z,24.2
2022-12-18T18:20:05.483Z,25.1
2022-12-18T18:24:47.819Z,19.29
2022-12-18T18:29:30.093Z,25.6
2022-12-18T18:38:54.700Z,21.1
2022-12-18T18:43:36.954Z,22.8
2022-12-18T18:48:19.255Z,24.8
2022-12-18T18:53:01.489Z,24.6
2022-12-18T18:57:43.809Z,24.2
2022-12-18T19:02:26.050Z,24.3
2022-12-18T19:07:08.362Z,25.4
2022-12-18T19:11:49.724Z,23.7
2022-12-18T19:16:31.922Z,24.7
2022-12-18T19:21:14.248Z,23.9
2022-12-18T19:25:56.488Z,27.5
2022-12-18T19:30:38.798Z,25.6
2022-12-18T19:35:21.133Z,26.1
2022-12-18T19:40:03.358Z,27
2022-12-18T19:44:45.729Z,20.29
2022-12-18T19:49:27.917Z,26.6
2022-12-18T19:54:10.296Z,24.8
2022-12-18T19:58:52.572Z,26.9
2022-12-18T20:03:34.894Z,27.8
2022-12-18T20:08:17.160Z,27.1
2022-12-18T20:12:58.352Z,26.6
2022-12-18T20:17:40.677Z,26.8
2022-12-18T20:22:23.014Z,27.7
2022-12-18T20:27:05.236Z,25.9
2022-12-18T20:31:47.578Z,26.8
2022-12-18T20:36:29.836Z,29.1
2022-12-18T20:41:12.125Z,25.1
2022-12-18T20:45:54.352Z,27
2022-12-18T20:50:36.685Z,27
2022-12-18T20:55:19.061Z,27.5
2022-12-18T21:00:01.739Z,27.4
2022-12-18T21:04:43.554Z,27.2
2022-12-18T21:09:25.848Z,29.2
2022-12-18T21:14:07.115Z,29.6
2022-12-18T21:18:49.442Z,29.5
2022-12-18T21:23:31.679Z,30
2022-12-18T21:28:13.996Z,28.2
2022-12-18T21:32:56.225Z,30.4
2022-12-18T21:37:38.594Z,30.1
2022-12-18T21:42:20.878Z,27.9
2022-12-18T21:47:03.111Z,28.1
2022-12-18T21:51:44.438Z,31.2
